Time;durP1;ratioP1;P1;durP2;ratioP2;P2;SDS_P1;SDS_P2;PMS_P1;PMS_P2;Temp;Humidity;BMP_temperature;BMP_pressure;BME280_temperature;BME280_humidity;BME280_pressure;Samples;Min_cycle;Max_cycle;Signal;HPM_P1;HPM_P2
2022/03/21 00:01:20;;;;;;;19.02;9.80;;;;;;;-2.21;100.00;101981.38;4949534;28;20054;-51
2022/03/21 00:03:46;;;;;;;17.50;9.02;;;;;;;-2.25;100.00;101972.88;4949609;28;20089;-50
2022/03/21 00:06:12;;;;;;;18.92;8.90;;;;;;;-2.26;100.00;101980.75;4947830;28;20028;-54
2022/03/21 00:08:37;;;;;;;19.00;9.05;;;;;;;-2.29;100.00;101979.13;4947205;28;20039;-51
2022/03/21 00:11:03;;;;;;;27.20;10.60;;;;;;;-2.32;100.00;101976.69;4951163;28;20113;-51
2022/03/21 00:13:29;;;;;;;17.65;8.40;;;;;;;-2.34;100.00;101983.69;4946685;28;20035;-52
2022/03/21 00:15:55;;;;;;;26.10;11.07;;;;;;;-2.38;100.00;101983.91;4955146;28;20031;-50
2022/03/21 00:18:23;;;;;;;18.77;9.35;;;;;;;-2.38;100.00;101982.16;4953685;28;20031;-51
2022/03/21 00:20:50;;;;;;;19.42;10.30;;;;;;;-2.39;100.00;101987.44;4948035;28;20039;-50
2022/03/21 00:23:17;;;;;;;19.33;9.18;;;;;;;-2.43;100.00;101990.19;4951350;28;20051;-51
2022/03/21 00:25:43;;;;;;;19.38;9.00;;;;;;;-2.46;100.00;101985.09;4951449;28;20031;-50
2022/03/21 00:28:09;;;;;;;23.15;9.93;;;;;;;-2.44;100.00;101987.63;4947988;28;20117;-50
2022/03/21 00:30:37;;;;;;;16.27;8.88;;;;;;;-2.51;100.00;101994.84;4950291;28;20444;-52
2022/03/21 00:33:04;;;;;;;22.75;9.80;;;;;;;-2.55;100.00;101990.72;4950148;28;20420;-51
2022/03/21 00:35:30;;;;;;;17.90;9.50;;;;;;;-2.58;100.00;102003.84;4953255;28;20109;-52
2022/03/21 00:37:56;;;;;;;23.80;9.93;;;;;;;-2.63;100.00;102003.22;4948859;28;20066;-54
2022/03/21 00:40:24;;;;;;;20.38;9.13;;;;;;;-2.66;100.00;101999.00;4950968;28;20030;-50
2022/03/21 00:42:50;;;;;;;25.20;11.18;;;;;;;-2.70;100.00;102002.63;4952822;28;20030;-51
2022/03/21 00:45:18;;;;;;;22.13;10.18;;;;;;;-2.71;100.00;102005.28;4947924;28;20195;-49
2022/03/21 00:47:44;;;;;;;20.52;8.55;;;;;;;-2.74;100.00;102011.44;4950328;28;20356;-49
2022/03/21 00:50:12;;;;;;;26.40;11.68;;;;;;;-2.75;100.00;102003.75;4951010;28;20114;-54
2022/03/21 00:52:43;;;;;;;27.67;11.13;;;;;;;-2.75;100.00;102006.34;4948325;28;20117;-52
2022/03/21 00:55:10;;;;;;;21.85;8.73;;;;;;;-2.80;100.00;102008.31;4956698;28;20062;-55
2022/03/21 00:57:37;;;;;;;13.68;7.97;;;;;;;-2.83;100.00;102008.44;4949177;28;20122;-51
2022/03/21 01:00:06;;;;;;;18.23;8.75;;;;;;;-2.83;100.00;102003.25;4952363;28;20066;-53
2022/03/21 01:02:31;;;;;;;21.23;9.73;;;;;;;-2.86;100.00;101996.44;4949680;28;20136;-48
2022/03/21 01:04:57;;;;;;;17.40;10.27;;;;;;;-2.88;100.00;101999.09;4949183;28;20031;-50
2022/03/21 01:07:22;;;;;;;21.40;9.35;;;;;;;-2.90;100.00;102000.91;4947571;28;20038;-52
2022/03/21 01:09:47;;;;;;;22.63;10.02;;;;;;;-2.94;100.00;102004.56;4949957;28;20554;-52
2022/03/21 01:12:14;;;;;;;19.15;9.45;;;;;;;-2.94;100.00;101998.53;4952444;28;20038;-49
2022/03/21 01:14:40;;;;;;;20.27;9.52;;;;;;;-2.95;100.00;101991.63;4949608;28;20432;-50
2022/03/21 01:17:05;;;;;;;21.55;9.57;;;;;;;-2.98;100.00;101995.22;4947359;28;20039;-51
2022/03/21 01:19:31;;;;;;;21.92;11.05;;;;;;;-2.99;100.00;101996.13;4949632;28;20031;-48
2022/03/21 01:21:57;;;;;;;23.90;10.70;;;;;;;-3.01;100.00;101994.50;4948500;28;20028;-49
2022/03/21 01:24:23;;;;;;;18.88;8.93;;;;;;;-3.04;100.00;101998.09;4948737;28;20035;-48
2022/03/21 01:26:49;;;;;;;23.13;9.75;;;;;;;-3.05;100.00;102001.56;4952049;28;20547;-50
2022/03/21 01:29:14;;;;;;;18.20;8.13;;;;;;;-3.11;100.00;102007.03;4949046;28;20046;-48
2022/03/21 01:31:39;;;;;;;19.70;9.68;;;;;;;-3.12;100.00;102010.53;4950544;28;20023;-53
2022/03/21 01:34:05;;;;;;;20.88;11.30;;;;;;;-3.11;100.00;102007.88;4948630;28;20117;-52
2022/03/21 01:36:30;;;;;;;30.55;10.07;;;;;;;-3.11;100.00;102010.47;4950832;28;20085;-51
2022/03/21 01:38:55;;;;;;;23.90;9.85;;;;;;;-3.12;100.00;102008.78;4949403;28;20110;-48
2022/03/21 01:41:21;;;;;;;22.52;10.85;;;;;;;-3.15;100.00;102003.72;4946754;28;20035;-51
2022/03/21 01:44:06;;;;;;;24.42;10.95;;;;;;;-3.15;100.00;102006.34;4947188;28;20060;-50
2022/03/21 01:46:32;;;;;;;19.25;8.52;;;;;;;-3.16;100.00;102006.38;4950094;28;20138;-49
2022/03/21 01:48:58;;;;;;;17.98;8.75;;;;;;;-3.17;100.00;102002.94;4947758;28;20546;-50
2022/03/21 01:51:27;;;;;;;20.70;9.02;;;;;;;-3.20;100.00;102004.81;4947041;28;20187;-55
2022/03/21 01:56:40;;;;;;;26.95;10.88;;;;;;;-3.24;100.00;102005.88;4948490;28;20490;-51
2022/03/21 01:59:07;;;;;;;21.42;9.75;;;;;;;-3.25;100.00;102006.75;4946864;28;20065;-49
2022/03/21 02:01:32;;;;;;;17.65;10.18;;;;;;;-3.30;100.00;102004.38;4952149;28;20035;-50
2022/03/21 02:03:58;;;;;;;23.60;11.30;;;;;;;-3.31;100.00;102005.28;4952056;28;20031;-53
2022/03/21 02:06:25;;;;;;;33.08;11.48;;;;;;;-3.33;100.00;102002.75;4950042;28;20027;-53
2022/03/21 02:08:51;;;;;;;28.73;9.55;;;;;;;-3.33;100.00;102005.34;4948203;28;20031;-49
2022/03/21 02:11:19;;;;;;;20.70;10.93;;;;;;;-3.36;100.00;102005.44;4945220;28;20030;-52
2022/03/21 02:13:45;;;;;;;21.50;9.80;;;;;;;-3.37;100.00;101998.59;4945115;28;20038;-52
2022/03/21 02:16:10;;;;;;;22.70;10.30;;;;;;;-3.36;100.00;101997.66;4949537;28;20027;-53
2022/03/21 02:18:40;;;;;;;25.70;10.85;;;;;;;-3.37;100.00;102001.19;4949233;28;20430;-50
2022/03/21 02:21:14;;;;;;;25.70;10.35;;;;;;;-3.37;100.00;102006.38;4947323;28;20135;-50
2022/03/21 02:23:51;;;;;;;21.48;10.07;;;;;;;-3.40;100.00;101995.28;4958019;28;20042;-50
2022/03/21 02:26:17;;;;;;;22.58;10.25;;;;;;;-3.41;100.00;102002.22;4956730;28;20031;-53
2022/03/21 02:28:44;;;;;;;19.05;8.63;;;;;;;-3.43;100.00;102004.03;4954794;28;20046;-53
2022/03/21 02:31:11;;;;;;;27.00;10.20;;;;;;;-3.46;100.00;101998.13;4962097;28;20043;-55
2022/03/21 02:33:36;;;;;;;23.63;11.23;;;;;;;-3.49;100.00;102001.69;4956164;28;20081;-49
2022/03/21 02:36:03;;;;;;;25.65;11.18;;;;;;;-3.52;100.00;101997.47;4963045;28;20496;-52
2022/03/21 02:38:29;;;;;;;24.23;11.15;;;;;;;-3.53;100.00;101989.78;4963042;28;20144;-53
2022/03/21 02:40:56;;;;;;;23.35;12.73;;;;;;;-3.56;100.00;101990.75;4964669;28;20110;-50
2022/03/21 02:43:21;;;;;;;20.75;10.25;;;;;;;-3.58;100.00;101996.91;4958279;28;20085;-55
2022/03/21 02:45:47;;;;;;;27.50;11.32;;;;;;;-3.60;100.00;101981.38;4962961;28;20428;-54
2022/03/21 02:48:13;;;;;;;23.13;11.65;;;;;;;-3.61;100.00;101987.50;4957244;28;20081;-52
2022/03/21 02:50:59;;;;;;;22.83;12.32;;;;;;;-3.65;100.00;101992.84;4964337;28;20045;-51
2022/03/21 02:53:25;;;;;;;19.83;10.00;;;;;;;-3.71;100.00;101987.94;4956802;28;20039;-49
2022/03/21 02:55:54;;;;;;;26.08;10.27;;;;;;;-3.79;100.00;101985.66;4956548;28;21197;-49
2022/03/21 02:58:20;;;;;;;23.50;9.93;;;;;;;-3.84;100.00;101991.00;4953596;28;20027;-54
2022/03/21 03:00:45;;;;;;;20.40;10.85;;;;;;;-3.82;100.00;101988.34;4955853;28;20061;-53
2022/03/21 03:03:10;;;;;;;25.25;11.05;;;;;;;-3.71;100.00;101990.53;4957094;28;20058;-54
2022/03/21 03:05:36;;;;;;;22.77;10.63;;;;;;;-3.68;100.00;101992.97;4961061;28;20066;-54
2022/03/21 03:08:03;;;;;;;31.85;11.95;;;;;;;-3.70;100.00;101987.00;4952654;28;20093;-49
2022/03/21 03:10:29;;;;;;;27.42;12.18;;;;;;;-3.69;100.00;101986.97;4961774;28;20618;-51
2022/03/21 03:12:54;;;;;;;24.48;10.85;;;;;;;-3.71;100.00;101985.34;4957852;28;20027;-54
2022/03/21 03:15:19;;;;;;;21.55;10.55;;;;;;;-3.71;100.00;101985.34;4957669;28;20042;-49
2022/03/21 03:17:44;;;;;;;25.75;11.05;;;;;;;-3.75;100.00;101984.59;4963558;28;20486;-52
2022/03/21 03:20:10;;;;;;;26.20;10.27;;;;;;;-3.80;100.00;101978.75;4962511;28;20085;-54
2022/03/21 03:22:36;;;;;;;26.80;13.45;;;;;;;-3.85;100.00;101983.28;4957696;28;20039;-50
2022/03/21 03:25:03;;;;;;;24.75;11.38;;;;;;;-3.92;100.00;101976.66;4958107;28;20061;-49
2022/03/21 03:27:30;;;;;;;23.95;9.98;;;;;;;-3.97;100.00;101980.28;4958695;28;20035;-50
2022/03/21 03:29:56;;;;;;;23.33;11.00;;;;;;;-3.95;100.00;101973.31;4960563;28;20042;-49
2022/03/21 03:32:21;;;;;;;26.42;11.00;;;;;;;-3.91;100.00;101978.34;4957874;28;20049;-49
2022/03/21 03:34:47;;;;;;;26.20;11.30;;;;;;;-3.86;100.00;101976.44;4958031;28;20045;-54
2022/03/21 03:37:13;;;;;;;22.45;10.20;;;;;;;-3.88;100.00;101981.66;4948252;28;20047;-49
2022/03/21 03:39:38;;;;;;;36.92;14.50;;;;;;;-3.89;100.00;101979.97;4961598;28;20117;-51
2022/03/21 03:42:04;;;;;;;25.00;10.82;;;;;;;-3.94;100.00;101984.50;4959562;28;20143;-52
2022/03/21 03:44:29;;;;;;;21.10;12.45;;;;;;;-3.98;100.00;101993.28;4963837;28;20054;-50
2022/03/21 03:46:54;;;;;;;24.58;10.75;;;;;;;-4.01;100.00;101988.22;4962119;28;20042;-55
2022/03/21 03:49:21;;;;;;;25.08;11.52;;;;;;;-4.05;100.00;101991.84;4966305;28;20093;-51
2022/03/21 03:51:46;;;;;;;24.15;12.02;;;;;;;-4.08;100.00;101991.97;4957966;28;20860;-48
2022/03/21 03:54:11;;;;;;;26.25;10.30;;;;;;;-4.11;100.00;101994.69;4950442;28;20177;-51
2022/03/21 03:56:37;;;;;;;22.90;10.10;;;;;;;-4.15;100.00;101988.78;4950422;28;20153;-51
2022/03/21 03:59:02;;;;;;;28.85;9.82;;;;;;;-4.18;100.00;101992.34;4953082;28;20122;-52
2022/03/21 04:01:27;;;;;;;25.90;11.13;;;;;;;-4.20;100.00;102001.91;4953237;28;20114;-49
2022/03/21 04:03:53;;;;;;;26.23;12.57;;;;;;;-4.20;100.00;102003.66;4948048;28;20038;-52
2022/03/21 04:06:23;;;;;;;30.30;12.93;;;;;;;-4.22;100.00;102005.44;4949815;28;20031;-49
2022/03/21 04:08:50;;;;;;;23.75;11.68;;;;;;;-4.28;100.00;101998.75;4948271;28;20094;-51
2022/03/21 04:11:16;;;;;;;23.85;12.98;;;;;;;-4.30;100.00;102007.50;4949607;28;20034;-51
2022/03/21 04:13:43;;;;;;;21.83;10.07;;;;;;;-4.33;100.00;102013.63;4950502;28;20038;-52
2022/03/21 04:16:09;;;;;;;32.80;11.75;;;;;;;-4.34;100.00;102005.91;4950532;28;20382;-49
2022/03/21 04:18:36;;;;;;;32.83;11.93;;;;;;;-4.31;100.00;102009.25;4952543;28;20537;-51
2022/03/21 04:21:03;;;;;;;27.70;12.38;;;;;;;-4.29;100.00;102007.41;4949078;28;20043;-53
2022/03/21 04:23:28;;;;;;;21.45;11.00;;;;;;;-4.32;100.00;102009.28;4947886;28;20083;-54
2022/03/21 04:25:54;;;;;;;22.23;10.88;;;;;;;-4.37;100.00;102017.22;4950657;28;20027;-50
2022/03/21 04:28:19;;;;;;;23.73;10.32;;;;;;;-4.40;100.00;102014.75;4961068;28;20027;-54
2022/03/21 04:30:45;;;;;;;21.60;10.35;;;;;;;-4.45;100.00;102009.75;4957423;28;20943;-54
2022/03/21 04:33:14;;;;;;;26.13;11.10;;;;;;;-4.46;100.00;102008.06;4961206;28;20031;-52
2022/03/21 04:35:41;;;;;;;24.40;11.85;;;;;;;-4.39;100.00;102022.47;4956507;28;20027;-53
2022/03/21 04:38:13;;;;;;;25.50;12.02;;;;;;;-4.36;100.00;102021.53;4952910;28;20058;-55
2022/03/21 04:40:56;;;;;;;23.85;12.98;;;;;;;-4.34;100.00;102019.69;4963127;28;20498;-52
2022/03/21 04:43:22;;;;;;;26.58;11.68;;;;;;;-4.39;100.00;102013.84;4953830;28;20039;-52
2022/03/21 04:45:48;;;;;;;34.92;12.73;;;;;;;-4.45;100.00;102021.84;4952892;28;20046;-52
2022/03/21 04:48:14;;;;;;;32.13;13.32;;;;;;;-4.45;100.00;102021.84;4963026;28;20389;-52
2022/03/21 04:50:39;;;;;;;24.15;11.00;;;;;;;-4.44;100.00;102020.94;4960373;28;20049;-55
2022/03/21 04:53:06;;;;;;;27.85;13.40;;;;;;;-4.45;100.00;102020.09;4960778;28;20035;-52
2022/03/21 04:55:32;;;;;;;27.77;11.38;;;;;;;-4.47;100.00;102027.06;4957433;28;20034;-53
2022/03/21 04:58:01;;;;;;;34.30;13.07;;;;;;;-4.48;100.00;102027.16;4961208;28;20054;-52
2022/03/21 05:00:27;;;;;;;25.42;12.02;;;;;;;-4.48;100.00;102027.16;4958323;28;20073;-51
2022/03/21 05:02:53;;;;;;;29.73;13.68;;;;;;;-4.50;100.00;102019.44;4951016;28;20039;-50
2022/03/21 05:05:18;;;;;;;23.80;11.27;;;;;;;-4.52;100.00;102017.78;4953398;28;20085;-51
2022/03/21 05:07:45;;;;;;;26.48;11.43;;;;;;;-4.53;100.00;102022.13;4959163;28;20031;-50
2022/03/21 05:10:14;;;;;;;27.45;11.40;;;;;;;-4.55;100.00;102023.91;4958315;28;20190;-52
2022/03/21 05:12:39;;;;;;;38.28;12.90;;;;;;;-4.57;100.00;102032.66;4949904;28;20444;-53
2022/03/21 05:15:07;;;;;;;27.17;11.27;;;;;;;-4.63;100.00;102031.97;4952032;28;20043;-51
2022/03/21 05:17:33;;;;;;;23.52;9.98;;;;;;;-4.69;100.00;102027.03;4960359;28;20112;-52
2022/03/21 05:19:59;;;;;;;22.05;10.05;;;;;;;-4.69;100.00;102032.19;4951587;28;20035;-54
2022/03/21 05:22:25;;;;;;;23.10;10.80;;;;;;;-4.70;100.00;102034.81;4949725;28;20125;-50
2022/03/21 05:35:54;;;;;;;25.20;11.93;;;;;;;-4.54;100.00;102045.47;4954111;28;20476;-51
2022/03/21 05:38:25;;;;;;;31.33;13.30;;;;;;;-4.53;100.00;102045.44;4964402;28;20031;-50
2022/03/21 05:40:51;;;;;;;28.20;13.88;;;;;;;-4.53;100.00;102036.81;4952634;28;20042;-52
2022/03/21 05:43:16;;;;;;;25.13;12.07;;;;;;;-4.52;100.00;102048.84;4956185;28;20078;-51
2022/03/21 05:45:42;;;;;;;29.50;12.95;;;;;;;-4.53;100.00;102052.38;4957196;28;20410;-52
2022/03/21 05:50:51;;;;;;;25.98;11.57;;;;;;;-4.53;100.00;102050.59;4957658;28;20038;-51
2022/03/21 05:53:18;;;;;;;27.00;11.82;;;;;;;-4.53;100.00;102042.84;4956149;28;20035;-51
2022/03/21 05:55:45;;;;;;;30.80;12.38;;;;;;;-4.51;100.00;102050.56;4955234;28;20042;-53
2022/03/21 05:58:11;;;;;;;32.72;14.20;;;;;;;-4.50;100.00;102050.50;4963112;28;20460;-55
2022/03/21 06:00:36;;;;;;;30.58;13.18;;;;;;;-4.50;100.00;102057.41;4951866;28;20399;-53
2022/03/21 06:03:03;;;;;;;25.40;10.63;;;;;;;-4.53;100.00;102057.53;4962976;28;20387;-51
2022/03/21 06:05:29;;;;;;;32.60;12.75;;;;;;;-4.55;100.00;102059.34;4955877;28;20047;-51
2022/03/21 06:07:55;;;;;;;27.60;14.20;;;;;;;-4.54;100.00;102055.81;4954169;28;20039;-51
2022/03/21 06:10:20;;;;;;;30.05;12.45;;;;;;;-4.51;100.00;102056.59;4955654;28;20039;-53
2022/03/21 06:12:46;;;;;;;31.58;13.85;;;;;;;-4.51;100.00;102051.41;4960533;28;20031;-53
2022/03/21 06:15:12;;;;;;;28.85;12.27;;;;;;;-4.54;100.00;102061.00;4951987;28;20130;-52
2022/03/21 06:17:41;;;;;;;25.45;10.20;;;;;;;-4.59;100.00;102061.19;4955737;28;20466;-52
2022/03/21 06:20:16;;;;;;;25.13;11.05;;;;;;;-4.55;100.00;102067.09;4954204;28;20045;-55
2022/03/21 06:22:43;;;;;;;25.88;11.45;;;;;;;-4.53;100.00;102063.56;4956271;28;20043;-52
2022/03/21 06:25:10;;;;;;;25.80;10.77;;;;;;;-4.52;100.00;102069.56;4957818;28;20505;-52
2022/03/21 06:27:39;;;;;;;33.97;13.68;;;;;;;-4.50;100.00;102072.97;4965951;28;20090;-51
2022/03/21 06:30:07;;;;;;;25.02;10.95;;;;;;;-4.41;100.00;102072.63;4952020;28;20031;-52
2022/03/21 06:32:33;;;;;;;27.33;12.57;;;;;;;-4.33;100.00;102083.56;4955189;28;20077;-51
2022/03/21 06:34:58;;;;;;;30.88;14.27;;;;;;;-4.25;100.00;102078.09;4952623;28;20043;-52
2022/03/21 06:37:24;;;;;;;34.88;14.18;;;;;;;-4.20;100.00;102084.78;4955179;28;20053;-53
2022/03/21 06:39:49;;;;;;;32.13;14.85;;;;;;;-4.12;100.00;102078.50;4950639;28;20039;-51
2022/03/21 06:42:14;;;;;;;25.73;11.57;;;;;;;-4.07;100.00;102082.59;4948175;28;20129;-54
2022/03/21 06:44:43;;;;;;;30.77;13.93;;;;;;;-4.04;100.00;102087.66;4954308;28;20034;-52
2022/03/21 06:47:10;;;;;;;28.17;13.60;;;;;;;-4.04;100.00;102086.81;4953443;28;20035;-49
2022/03/21 06:49:35;;;;;;;25.13;11.95;;;;;;;-4.05;100.00;102088.56;4957490;28;20046;-51
2022/03/21 06:52:08;;;;;;;33.35;12.50;;;;;;;-4.06;100.00;102084.28;4956967;28;20039;-53
2022/03/21 06:54:34;;;;;;;24.98;11.40;;;;;;;-4.05;100.00;102088.56;4961807;28;20069;-52
2022/03/21 06:56:59;;;;;;;28.95;11.55;;;;;;;-4.01;100.00;102097.06;4958389;28;20038;-52
2022/03/21 06:59:25;;;;;;;23.60;11.63;;;;;;;-3.95;100.00;102102.00;4956984;28;20042;-53
2022/03/21 07:01:50;;;;;;;27.25;12.65;;;;;;;-3.85;100.00;102095.56;4959366;28;20035;-55
2022/03/21 07:04:16;;;;;;;29.88;13.80;;;;;;;-3.77;100.00;102101.31;4959091;28;20035;-52
2022/03/21 07:06:41;;;;;;;25.30;11.93;;;;;;;-3.68;100.00;102105.31;4950591;28;20027;-51
2022/03/21 07:09:07;;;;;;;29.67;13.73;;;;;;;-3.58;100.00;102111.81;4948752;28;20428;-54
2022/03/21 07:11:34;;;;;;;30.30;13.13;;;;;;;-3.48;100.00;102107.13;4953279;28;20404;-54
2022/03/21 07:14:01;;;;;;;33.35;13.50;;;;;;;-3.39;100.00;102114.53;4957855;28;20039;-53
2022/03/21 07:16:26;;;;;;;37.15;15.40;;;;;;;-3.31;100.00;102122.00;4957671;28;20590;-51
2022/03/21 07:18:51;;;;;;;38.47;14.52;;;;;;;-3.25;100.00;102111.41;4952597;28;20035;-51
2022/03/21 07:21:17;;;;;;;30.90;13.32;;;;;;;-3.18;100.00;102117.16;4954941;28;20031;-52
2022/03/21 07:23:42;;;;;;;37.10;13.25;;;;;;;-3.08;100.00;102121.06;4953339;28;20509;-50
2022/03/21 07:26:08;;;;;;;36.70;15.00;;;;;;;-2.99;100.00;102122.47;4951359;28;20030;-54
2022/03/21 07:28:33;;;;;;;31.33;13.82;;;;;;;-2.91;100.00;102126.44;4949828;28;20430;-49
2022/03/21 07:30:59;;;;;;;35.35;13.23;;;;;;;-2.81;100.00;102118.22;4950272;28;20042;-55
2022/03/21 07:33:24;;;;;;;28.80;12.82;;;;;;;-2.78;100.00;102113.78;4951731;28;20067;-51
2022/03/21 07:35:50;;;;;;;29.80;13.38;;;;;;;-2.74;100.00;102114.47;4954570;28;20030;-54
2022/03/21 07:38:19;;;;;;;32.10;14.57;;;;;;;-2.60;100.00;102109.56;4964296;28;20052;-53
2022/03/21 07:40:46;;;;;;;35.75;13.48;;;;;;;-2.43;100.00;102104.47;4957386;28;20470;-52
2022/03/21 07:43:12;;;;;;;34.38;15.20;;;;;;;-2.25;100.00;102101.94;4953353;28;20031;-52
2022/03/21 07:48:23;;;;;;;32.53;13.73;;;;;;;-1.96;100.00;102108.47;4945693;28;20145;-55
2022/03/21 07:50:48;;;;;;;30.83;13.18;;;;;;;-1.86;100.00;102106.25;4946519;28;20396;-56
2022/03/21 07:53:13;;;;;;;31.80;14.13;;;;;;;-1.78;100.00;102101.56;4944474;28;20077;-53
2022/03/21 07:55:38;;;;;;;23.55;11.32;;;;;;;-1.65;100.00;102107.88;4942813;28;20385;-56
2022/03/21 07:58:04;;;;;;;28.73;13.10;;;;;;;-1.52;100.00;102099.47;4942783;28;20471;-56
2022/03/21 08:00:31;;;;;;;27.33;12.02;;;;;;;-1.42;100.00;102098.09;4947616;28;20118;-55
2022/03/21 08:02:58;;;;;;;37.83;13.93;;;;;;;-1.26;100.00;102104.28;4946205;28;20467;-56
2022/03/21 08:05:23;;;;;;;34.42;13.65;;;;;;;-0.98;100.00;102110.72;4945013;28;20039;-55
2022/03/21 08:07:51;;;;;;;32.80;14.82;;;;;;;-0.73;100.00;102113.78;4943999;28;20042;-58
2022/03/21 08:10:18;;;;;;;32.55;15.57;;;;;;;-0.56;100.00;102114.69;4947278;28;20034;-55
2022/03/21 08:12:46;;;;;;;36.20;15.98;;;;;;;-0.40;100.00;102115.56;4946792;28;20027;-58
2022/03/21 08:15:13;;;;;;;34.58;15.52;;;;;;;-0.22;100.00;102114.59;4949540;28;20035;-58
2022/03/21 08:18:07;;;;;;;33.55;13.80;;;;;;;0.01;100.00;102111.72;4947698;28;20542;-55
2022/03/21 08:20:34;;;;;;;42.90;15.70;;;;;;;0.21;100.00;102112.31;4954405;28;20516;-57
2022/03/21 08:23:01;;;;;;;32.20;16.65;;;;;;;0.42;100.00;102099.00;4951053;28;20042;-58
2022/03/21 08:25:27;;;;;;;28.55;13.25;;;;;;;0.62;100.00;102103.06;4953122;28;20380;-57
2022/03/21 08:27:53;;;;;;;38.45;17.50;;;;;;;0.81;100.00;102106.34;4950693;28;20114;-57
2022/03/21 08:30:19;;;;;;;29.38;13.82;;;;;;;1.00;100.00;102100.06;4949478;28;20136;-56
2022/03/21 08:32:46;;;;;;;36.72;16.67;;;;;;;1.19;100.00;102107.66;4947428;28;20043;-56
2022/03/21 08:35:12;;;;;;;33.38;14.32;;;;;;;1.36;100.00;102106.66;4955790;28;20031;-56
2022/03/21 08:37:37;;;;;;;34.60;14.32;;;;;;;1.56;100.00;102108.91;4959075;28;20542;-56
2022/03/21 08:40:03;;;;;;;31.25;15.30;;;;;;;1.78;100.00;102111.06;4963310;28;20026;-58
2022/03/21 08:42:29;;;;;;;29.20;15.15;;;;;;;2.05;100.00;102107.69;4962276;28;20030;-56
2022/03/21 08:44:55;;;;;;;31.80;16.23;;;;;;;2.30;100.00;102104.38;4949855;28;20078;-56
2022/03/21 08:47:20;;;;;;;27.83;14.35;;;;;;;2.58;100.00;102106.91;4958104;28;20038;-53
2022/03/21 08:49:46;;;;;;;32.95;17.15;;;;;;;2.95;100.00;102101.03;4957544;28;20038;-56
2022/03/21 08:52:13;;;;;;;33.58;16.48;;;;;;;3.50;100.00;102099.91;4956865;28;20035;-60
2022/03/21 08:54:39;;;;;;;35.03;15.18;;;;;;;3.90;100.00;102095.38;4953377;28;20030;-59
2022/03/21 08:57:05;;;;;;;33.65;16.48;;;;;;;3.88;100.00;102083.31;4955966;28;20047;-59
2022/03/21 08:59:30;;;;;;;36.65;16.02;;;;;;;3.96;100.00;102083.59;4958601;28;20093;-56
2022/03/21 09:01:56;;;;;;;36.10;18.33;;;;;;;4.06;100.00;102092.50;4953416;28;20031;-56
2022/03/21 09:04:22;;;;;;;32.15;15.45;;;;;;;4.27;100.00;102094.53;4963385;28;20170;-56
2022/03/21 09:06:48;;;;;;;34.58;15.43;;;;;;;4.47;100.00;102088.69;4956157;28;20478;-55
2022/03/21 09:09:13;;;;;;;33.38;14.02;;;;;;;4.72;100.00;102094.75;4951776;28;20039;-57
2022/03/21 09:11:38;;;;;;;31.00;16.40;;;;;;;4.94;100.00;102084.31;4949628;28;20485;-55
2022/03/21 09:14:04;;;;;;;35.10;15.75;;;;;;;5.25;100.00;102079.38;4957449;28;20130;-56
2022/03/21 09:16:30;;;;;;;26.73;13.80;;;;;;;5.45;100.00;102086.59;4957577;28;20566;-58
2022/03/21 09:18:55;;;;;;;26.10;13.60;;;;;;;5.75;100.00;102081.69;4952435;28;20052;-54
2022/03/21 09:21:20;;;;;;;33.63;15.48;;;;;;;5.99;100.00;102082.44;4949152;28;20032;-57
2022/03/21 09:23:46;;;;;;;37.13;15.13;;;;;;;6.18;100.00;102073.03;4954042;28;20489;-56
2022/03/21 09:26:11;;;;;;;32.03;16.65;;;;;;;6.33;100.00;102061.28;4957065;28;20541;-58
2022/03/21 09:28:44;;;;;;;26.00;14.07;;;;;;;6.55;100.00;102062.97;4953369;28;20039;-56
2022/03/21 09:31:10;;;;;;;27.58;14.00;;;;;;;6.77;100.00;102064.69;4948298;28;20043;-55
2022/03/21 09:33:36;;;;;;;25.42;14.88;;;;;;;6.95;100.00;102057.06;4954974;28;20062;-56
2022/03/21 09:36:03;;;;;;;30.80;15.20;;;;;;;7.12;100.00;102064.34;4955845;28;20065;-58
2022/03/21 09:38:28;;;;;;;22.73;12.05;;;;;;;7.22;100.00;102054.69;4959888;28;20086;-52
2022/03/21 09:40:54;;;;;;;18.50;10.68;;;;;;;7.39;100.00;102049.81;4959030;28;20031;-58
2022/03/21 09:43:20;;;;;;;22.77;12.52;;;;;;;7.60;100.00;102042.66;4957011;28;20027;-57
2022/03/21 09:45:45;;;;;;;26.15;13.48;;;;;;;7.80;100.00;102042.75;4962367;28;20113;-55
2022/03/21 09:48:14;;;;;;;28.38;14.85;;;;;;;7.98;100.00;102035.81;4959510;28;20491;-59
2022/03/21 09:50:44;;;;;;;33.05;15.27;;;;;;;8.24;100.00;102035.31;4954806;28;20122;-54
2022/03/21 09:53:11;;;;;;;28.63;14.20;;;;;;;8.44;100.00;102031.75;4958470;28;20117;-57
2022/03/21 09:55:37;;;;;;;30.45;14.48;;;;;;;8.71;100.00;102032.84;4953075;28;20042;-55
2022/03/21 09:58:03;;;;;;;27.15;14.88;;;;;;;8.91;100.00;102031.84;4951894;28;20065;-59
2022/03/21 10:00:29;;;;;;;24.60;14.15;;;;;;;8.97;100.00;102032.25;4953283;28;20476;-56
2022/03/21 10:02:56;;;;;;;24.13;13.10;;;;;;;8.99;100.00;102032.94;4959422;28;20027;-57
2022/03/21 10:05:36;;;;;;;25.90;15.35;;;;;;;9.09;100.00;102031.09;4957690;28;20027;-58
2022/03/21 10:08:29;;;;;;;29.17;13.57;;;;;;;9.22;100.00;102028.97;4949452;28;20456;-58
2022/03/21 10:11:00;;;;;;;21.90;13.63;;;;;;;9.34;100.00;102024.31;4957012;28;20109;-55
2022/03/21 10:13:43;;;;;;;23.83;13.47;;;;;;;9.56;100.00;102023.13;4956636;28;20035;-58
2022/03/21 10:16:16;;;;;;;26.25;13.55;;;;;;;9.61;100.00;102020.88;4956091;28;20030;-58
2022/03/21 10:18:54;;;;;;;27.67;15.00;;;;;;;9.72;100.00;102025.97;4945746;28;20130;-57
2022/03/21 10:21:27;;;;;;;20.92;11.32;;;;;;;9.82;100.00;102017.97;4957709;28;20049;-57
2022/03/21 10:23:58;;;;;;;30.13;13.60;;;;;;;9.85;100.00;102022.13;4953890;28;20063;-54
2022/03/21 10:26:29;;;;;;;27.60;12.18;;;;;;;9.95;100.00;102014.97;4951921;28;20086;-59
2022/03/21 10:29:00;;;;;;;26.08;14.70;;;;;;;10.09;100.00;102010.94;4955638;28;20416;-55
2022/03/21 10:31:36;;;;;;;23.85;11.90;;;;;;;10.16;100.00;102010.19;4959687;28;20075;-57
2022/03/21 10:34:12;;;;;;;23.23;11.93;;;;;;;10.30;100.00;102013.34;4961079;28;20046;-57
2022/03/21 10:37:00;;;;;;;22.70;12.57;;;;;;;10.38;100.00;102011.63;4955602;28;20460;-57
2022/03/21 10:39:27;;;;;;;25.00;12.52;;;;;;;10.55;100.00;102009.91;4947175;28;20027;-59
2022/03/21 10:42:08;;;;;;;23.10;12.93;;;;;;;10.78;100.00;102012.09;4957121;28;20532;-59
2022/03/21 10:44:34;;;;;;;32.00;14.30;;;;;;;10.98;100.00;102010.91;4953273;28;20043;-53
2022/03/21 10:47:05;;;;;;;25.80;13.13;;;;;;;11.03;100.00;102003.28;4965472;28;20126;-59
2022/03/21 10:49:38;;;;;;;24.13;12.73;;;;;;;11.23;100.00;102013.69;4956542;28;20144;-55
2022/03/21 10:52:05;;;;;;;24.90;12.85;;;;;;;11.41;100.00;102009.16;4961347;28;20273;-56
2022/03/21 10:54:37;;;;;;;24.45;13.38;;;;;;;11.70;100.00;102000.78;4955645;28;20395;-56
2022/03/21 10:57:04;;;;;;;25.38;13.07;;;;;;;11.84;100.00;102004.63;4951198;28;20054;-55
2022/03/21 10:59:30;;;;;;;25.95;12.15;;;;;;;11.82;100.00;102005.78;4952128;28;20423;-61
2022/03/21 11:02:17;;;;;;;22.67;11.50;;;;;;;11.98;100.00;101998.72;4959586;28;20504;-60
2022/03/21 11:04:44;;;;;;;20.52;10.32;;;;;;;12.16;100.00;101995.09;4959878;28;20185;-60
2022/03/21 11:07:14;;;;;;;20.83;12.20;;;;;;;12.34;100.00;101998.44;4961754;28;20539;-60
2022/03/21 11:09:41;;;;;;;26.52;11.25;;;;;;;12.45;100.00;101999.94;4951936;28;20041;-57
2022/03/21 11:12:08;;;;;;;24.58;13.32;;;;;;;12.38;100.00;101997.09;4961845;28;20408;-54
2022/03/21 11:14:41;;;;;;;24.00;12.77;;;;;;;12.23;100.00;101996.09;4951784;28;20106;-57
2022/03/21 11:17:07;;;;;;;25.10;12.43;;;;;;;12.43;100.00;101994.78;4961576;28;20125;-60
2022/03/21 11:19:34;;;;;;;25.95;11.07;;;;;;;12.64;100.00;101996.91;4954583;28;20039;-55
2022/03/21 11:22:00;;;;;;;30.05;15.00;;;;;;;12.82;100.00;101999.41;4960087;28;20578;-57
2022/03/21 11:24:28;;;;;;;31.10;13.38;;;;;;;12.95;96.53;101990.91;4954647;28;20046;-55